Portada
METAR-TAF:

METAR-TAF

Aeropuertos :

Murcia, España

Base Aérea de Alcantarilla

latitud: 37-57N, longitud: 001-14W, altitud: 75 m

Observación

El informe se hizo hace 23 minutos, a las 11:00 UTC
Viento 2 kt con dirección variable
Temperatura 17°C
Humedad 34%
Presión 1020 hPa
Visibilidad 10 km o más
sin nubes por debajo de 1500 m y sin presencia de cumulonimbus.

METAR: LERI 231100Z VRB02KT CAVOK 17/01 Q1020 NOSIG

Hora: 12:23 (11:23 UTC)

Pronóstico

El informe se hizo hace 3 horas y 23 minutos, a las 08:00 UTC
Pronóstico válido del 23 a las 09 UTC al 23 a las 18 UTC
Viento 5 kt del suroeste
Visibilidad 10 km o más
sin nubes por debajo de 1500 m y sin presencia de cumulonimbus.

TAF: LERI 230800Z 2309/2318 23005KT CAVOK

Observaciones y pronósticos meteorológicos de más de 4000 aeropuertos (mensajes METAR y TAF).

Los puntos amarillos y rojos representan las estaciones disponibles.

Ponga el ratón en el punto deseado para ver el nombre de la estación.

Haga clic para ver las observaciones y los pronósticos meteorológicos.

Para cambiar el mapa : haga clic en los botones verdes con una cruz de color negro para hacer un zoom, en el botón verde con un guión para alejar o en las flechas verdes para mapas adyacentes.


METAR-TAF: